createdAt,value
2023-05-14T00:00:06.508Z,9.04
2023-05-14T00:02:34.139Z,8.84
2023-05-14T00:05:01.720Z,8.88
2023-05-14T00:07:30.906Z,8.84
2023-05-14T00:09:58.532Z,8.96
2023-05-14T00:12:26.336Z,8.89
2023-05-14T00:14:53.971Z,8.95
2023-05-14T00:17:23.293Z,9.13
2023-05-14T00:19:51.194Z,9.25
2023-05-14T00:22:18.774Z,9.24
2023-05-14T00:24:46.497Z,9.38
2023-05-14T00:27:15.955Z,9.27
2023-05-14T00:29:43.595Z,9.53
2023-05-14T00:32:11.109Z,9.56
2023-05-14T00:34:39.909Z,9.60
2023-05-14T00:37:07.445Z,10.04
2023-05-14T00:39:35.459Z,10.17
2023-05-14T00:42:03.051Z,10.33
2023-05-14T00:44:30.541Z,10.07
2023-05-14T00:46:58.165Z,10.04
2023-05-14T00:49:26.576Z,9.89
2023-05-14T00:51:55.764Z,9.90
2023-05-14T00:54:23.700Z,10.19
2023-05-14T00:56:51.808Z,10.55
2023-05-14T00:59:19.282Z,10.65
2023-05-14T01:01:46.966Z,10.40
2023-05-14T01:04:14.651Z,9.70
2023-05-14T01:06:48.426Z,9.55
2023-05-14T01:09:22.595Z,10.18
2023-05-14T01:11:54.889Z,10.42
2023-05-14T01:14:26.553Z,10.37
2023-05-14T01:16:59.085Z,10.10
2023-05-14T01:19:31.190Z,10.17
2023-05-14T01:22:00.097Z,10.66
2023-05-14T01:24:27.585Z,10.50
2023-05-14T01:26:56.234Z,10.04
2023-05-14T01:29:24.405Z,9.68
2023-05-14T01:31:55.131Z,9.82
2023-05-14T01:34:24.657Z,10.22
2023-05-14T01:36:53.368Z,10.09
2023-05-14T01:39:22.874Z,11.16
2023-05-14T01:41:50.835Z,9.97
2023-05-14T01:44:18.668Z,9.90
2023-05-14T01:46:46.174Z,9.94
2023-05-14T01:49:14.011Z,10.08
2023-05-14T01:51:41.552Z,10.08
2023-05-14T01:54:09.156Z,10.64
2023-05-14T01:56:38.064Z,9.76
2023-05-14T01:59:05.605Z,10.26
2023-05-14T02:01:33.959Z,9.82
2023-05-14T02:04:01.931Z,10.26
2023-05-14T02:06:32.233Z,10.93
2023-05-14T02:09:00.052Z,10.43
2023-05-14T02:11:27.644Z,9.99
2023-05-14T02:13:56.501Z,10.13
2023-05-14T02:16:24.054Z,9.68
2023-05-14T02:18:51.611Z,9.98
2023-05-14T02:21:19.194Z,10.73
2023-05-14T02:23:48.578Z,11.21
2023-05-14T02:26:16.146Z,10.44
2023-05-14T02:28:43.653Z,10.40
2023-05-14T02:31:13.020Z,10.69
2023-05-14T02:33:40.743Z,11.03
2023-05-14T02:36:08.585Z,10.72
2023-05-14T02:38:36.220Z,10.94
2023-05-14T02:41:03.710Z,11.23
2023-05-14T02:43:31.354Z,10.67
2023-05-14T02:45:58.881Z,9.95
2023-05-14T02:48:27.664Z,9.72
2023-05-14T02:50:55.173Z,9.90
2023-05-14T02:53:22.634Z,10.18
2023-05-14T02:55:50.529Z,10.56
2023-05-14T02:58:19.090Z,11.11
2023-05-14T03:00:53.083Z,10.75
2023-05-14T03:03:21.115Z,10.20
2023-05-14T03:05:50.795Z,10.07
2023-05-14T03:08:18.549Z,10.29
2023-05-14T03:10:46.100Z,10.10
2023-05-14T03:13:17.625Z,9.65
2023-05-14T03:15:45.150Z,9.59
2023-05-14T03:18:12.825Z,9.89
2023-05-14T03:20:40.328Z,10.66
2023-05-14T03:23:09.222Z,10.36
2023-05-14T03:25:36.965Z,9.84
2023-05-14T03:28:04.519Z,10.11
2023-05-14T03:30:32.104Z,9.65
2023-05-14T03:32:59.815Z,9.68
2023-05-14T03:35:27.424Z,9.78
2023-05-14T03:37:55.137Z,10.47
2023-05-14T03:40:24.198Z,10.39
2023-05-14T03:42:51.863Z,10.57
2023-05-14T03:45:19.377Z,10.36
2023-05-14T03:47:47.436Z,10.01
2023-05-14T03:50:14.999Z,9.76
2023-05-14T03:52:43.517Z,10.13
2023-05-14T03:55:11.303Z,10.76
2023-05-14T03:57:41.417Z,10.99
2023-05-14T04:00:10.368Z,11.31
2023-05-14T04:02:38.133Z,11.06
2023-05-14T04:05:06.181Z,10.90
2023-05-14T04:07:33.669Z,10.32
2023-05-14T04:10:04.174Z,11.06
2023-05-14T04:12:32.047Z,10.95
2023-05-14T04:15:00.908Z,10.82
2023-05-14T04:17:28.468Z,9.80
2023-05-14T04:19:55.974Z,10.34
2023-05-14T04:22:23.561Z,10.37
2023-05-14T04:24:51.805Z,10.12
2023-05-14T04:27:22.006Z,10.15
2023-05-14T04:29:49.554Z,10.66
2023-05-14T04:32:18.605Z,10.84
2023-05-14T04:34:46.866Z,11.02
2023-05-14T04:37:14.440Z,11.06
2023-05-14T04:39:43.567Z,11.39
2023-05-14T04:42:11.336Z,11.47
2023-05-14T04:44:38.824Z,11.18
2023-05-14T04:47:06.940Z,11.74
2023-05-14T04:49:35.731Z,11.24
2023-05-14T04:52:03.306Z,11.73
2023-05-14T04:54:30.895Z,11.93
2023-05-14T04:57:03.036Z,11.67
2023-05-14T04:59:30.569Z,11.84
2023-05-14T05:01:58.102Z,12.06
2023-05-14T05:04:26.414Z,11.94
2023-05-14T05:06:55.288Z,12.21
2023-05-14T05:09:22.833Z,12.22
2023-05-14T05:11:50.372Z,12.32
2023-05-14T05:14:18.016Z,12.25
2023-05-14T05:16:45.571Z,12.37
2023-05-14T05:19:13.178Z,12.66
2023-05-14T05:21:41.173Z,12.39
2023-05-14T05:24:10.001Z,11.65
2023-05-14T05:26:37.725Z,12.12
2023-05-14T05:29:05.392Z,12.09
2023-05-14T05:31:33.274Z,11.84
2023-05-14T05:34:01.209Z,11.89
2023-05-14T05:36:28.820Z,11.99
2023-05-14T05:38:56.511Z,12.14
2023-05-14T05:41:25.298Z,12.37
2023-05-14T05:43:52.871Z,12.69
2023-05-14T05:46:20.537Z,12.77
2023-05-14T05:48:48.079Z,12.76
2023-05-14T05:51:15.579Z,12.01
2023-05-14T05:53:43.373Z,11.89
2023-05-14T05:56:10.991Z,12.57
2023-05-14T05:58:39.843Z,12.31
2023-05-14T06:01:07.502Z,12.86
2023-05-14T06:03:35.415Z,13.44
2023-05-14T06:06:02.911Z,13.46
2023-05-14T06:08:30.598Z,13.09
2023-05-14T06:10:58.058Z,12.54
2023-05-14T06:13:25.597Z,12.00
2023-05-14T06:15:54.380Z,12.57
2023-05-14T06:18:21.866Z,12.38
2023-05-14T06:20:49.358Z,12.39
2023-05-14T06:23:16.879Z,12.00
2023-05-14T06:25:44.388Z,12.17
2023-05-14T06:28:11.957Z,12.70
2023-05-14T06:30:39.460Z,12.59
2023-05-14T06:33:08.310Z,13.44
2023-05-14T06:35:35.784Z,13.42
2023-05-14T06:38:03.634Z,13.01
2023-05-14T06:40:31.135Z,13.19
2023-05-14T06:42:58.677Z,12.02
2023-05-14T06:45:26.187Z,12.06
2023-05-14T06:47:53.812Z,12.19
2023-05-14T06:50:22.879Z,12.96
2023-05-14T06:52:50.510Z,12.13
2023-05-14T06:55:18.160Z,12.42
2023-05-14T06:57:45.705Z,12.60
2023-05-14T07:00:14.308Z,12.78
2023-05-14T07:02:41.814Z,12.85
2023-05-14T07:05:09.846Z,14.08
2023-05-14T07:07:38.685Z,14.04
2023-05-14T07:10:08.132Z,14.74
2023-05-14T07:12:35.630Z,14.66
2023-05-14T07:15:03.281Z,14.61
2023-05-14T07:17:31.116Z,14.48
2023-05-14T07:19:58.640Z,14.78
2023-05-14T07:22:26.151Z,15.04
2023-05-14T07:24:54.970Z,14.96
2023-05-14T07:27:22.449Z,14.62
2023-05-14T07:29:50.567Z,15.01
2023-05-14T07:32:18.095Z,14.73
2023-05-14T07:34:46.306Z,14.34
2023-05-14T07:37:13.802Z,14.69
2023-05-14T07:39:41.717Z,14.96
2023-05-14T07:42:10.557Z,15.63
2023-05-14T07:44:38.102Z,14.74
2023-05-14T07:47:07.469Z,15.00
2023-05-14T07:49:34.998Z,15.00
2023-05-14T07:52:02.488Z,15.84
2023-05-14T07:54:29.947Z,15.77
2023-05-14T07:56:57.462Z,15.75
2023-05-14T07:59:26.301Z,16.32
2023-05-14T08:01:53.814Z,16.93
2023-05-14T08:04:23.324Z,16.97
2023-05-14T08:06:51.067Z,16.59
2023-05-14T08:09:18.590Z,17.40
2023-05-14T08:11:46.094Z,16.39
2023-05-14T08:14:13.591Z,16.84
2023-05-14T08:16:42.490Z,16.72
2023-05-14T08:19:10.082Z,16.92
2023-05-14T08:21:37.619Z,17.68
2023-05-14T08:24:05.682Z,18.25
2023-05-14T08:26:33.202Z,17.96
2023-05-14T08:29:00.696Z,17.16
2023-05-14T08:31:28.318Z,16.77
2023-05-14T08:33:57.192Z,17.14
2023-05-14T08:36:24.788Z,17.59
2023-05-14T08:38:52.253Z,16.56
2023-05-14T08:41:19.839Z,17.61
2023-05-14T08:43:55.973Z,17.65
2023-05-14T08:46:25.155Z,17.60
2023-05-14T08:49:02.585Z,18.00
2023-05-14T08:51:30.362Z,20.05
2023-05-14T08:53:58.740Z,18.89
2023-05-14T08:56:26.362Z,19.15
2023-05-14T08:58:53.851Z,19.19
2023-05-14T09:01:21.859Z,19.82
2023-05-14T09:03:50.088Z,20.28
2023-05-14T09:06:19.518Z,19.33
2023-05-14T09:08:47.525Z,20.72
2023-05-14T09:11:15.049Z,18.97
2023-05-14T09:13:45.405Z,22.15
2023-05-14T09:16:13.042Z,20.99
2023-05-14T09:18:44.442Z,19.68
2023-05-14T09:21:14.009Z,20.28
2023-05-14T09:23:44.778Z,18.38
2023-05-14T09:26:12.638Z,17.95
2023-05-14T09:28:41.433Z,18.58
2023-05-14T09:31:10.520Z,18.35
2023-05-14T09:33:38.020Z,19.00
2023-05-14T09:36:05.738Z,18.59
2023-05-14T09:38:34.477Z,18.23
2023-05-14T09:41:04.166Z,17.66
2023-05-14T09:43:31.642Z,17.82
2023-05-14T09:45:59.138Z,21.93
2023-05-14T09:48:26.806Z,22.03
2023-05-14T09:50:54.460Z,20.03
2023-05-14T09:53:22.181Z,19.07
2023-05-14T09:55:50.736Z,21.10
2023-05-14T09:58:19.509Z,20.88
2023-05-14T10:00:47.834Z,19.15
2023-05-14T10:03:19.519Z,22.82
2023-05-14T10:05:50.245Z,23.20
2023-05-14T10:08:21.613Z,24.70
2023-05-14T10:10:49.578Z,24.35
2023-05-14T10:13:21.876Z,24.21
2023-05-14T10:15:51.403Z,19.58
2023-05-14T10:18:20.530Z,20.54
2023-05-14T10:20:49.821Z,23.88
2023-05-14T10:23:17.371Z,22.49
2023-05-14T10:25:44.913Z,21.50
2023-05-14T10:28:12.636Z,21.57
2023-05-14T10:30:45.559Z,22.96
2023-05-14T10:33:15.432Z,24.19
2023-05-14T10:35:54.509Z,23.74
2023-05-14T10:38:24.374Z,26.01
2023-05-14T10:40:54.095Z,24.49
2023-05-14T10:43:22.379Z,22.70
2023-05-14T10:45:51.247Z,22.77
2023-05-14T10:48:19.665Z,23.48
2023-05-14T10:50:48.976Z,25.85
2023-05-14T10:53:16.551Z,25.44
2023-05-14T10:55:44.494Z,27.23
2023-05-14T10:58:12.376Z,27.17
2023-05-14T11:00:40.332Z,23.93
2023-05-14T11:03:09.378Z,23.69
2023-05-14T11:05:37.599Z,22.63
2023-05-14T11:08:07.675Z,23.34
2023-05-14T11:10:36.242Z,24.56
2023-05-14T11:13:03.854Z,24.02
2023-05-14T11:15:32.210Z,24.12
2023-05-14T11:17:59.820Z,20.74
2023-05-14T11:20:28.643Z,24.90
2023-05-14T11:22:56.124Z,25.70
2023-05-14T11:25:25.691Z,25.27
2023-05-14T11:27:55.968Z,26.08
2023-05-14T11:30:23.806Z,25.51
2023-05-14T11:32:51.757Z,27.24
2023-05-14T11:35:19.567Z,23.41
2023-05-14T11:37:52.812Z,26.23
2023-05-14T11:40:20.568Z,26.57
2023-05-14T11:42:48.140Z,25.04
2023-05-14T11:45:25.545Z,24.09
2023-05-14T11:47:53.653Z,22.51
2023-05-14T11:50:22.470Z,23.62
2023-05-14T11:52:51.560Z,23.96
2023-05-14T11:55:19.125Z,23.79
2023-05-14T11:57:46.763Z,25.57
2023-05-14T12:00:21.374Z,24.45
2023-05-14T12:02:49.496Z,25.16
2023-05-14T12:05:17.081Z,23.12
2023-05-14T12:07:45.744Z,22.72
2023-05-14T12:10:14.644Z,23.08
2023-05-14T12:12:46.253Z,22.91
2023-05-14T12:15:14.652Z,22.18
2023-05-14T12:17:42.232Z,21.44
2023-05-14T12:20:11.617Z,20.89
2023-05-14T12:22:39.347Z,22.81
2023-05-14T12:25:12.614Z,21.18
2023-05-14T12:27:41.785Z,23.05
2023-05-14T12:32:41.505Z,21.17
2023-05-14T12:35:09.656Z,21.42
2023-05-14T12:37:37.409Z,20.54
2023-05-14T12:40:08.989Z,21.98
2023-05-14T12:42:36.651Z,21.43
2023-05-14T12:45:08.422Z,21.67
2023-05-14T12:47:37.320Z,22.12
2023-05-14T12:50:05.918Z,21.23
2023-05-14T12:52:38.411Z,23.21
2023-05-14T12:55:07.389Z,23.30
2023-05-14T12:57:35.509Z,23.50
2023-05-14T13:00:06.828Z,22.66
2023-05-14T13:02:43.054Z,24.82
2023-05-14T13:05:11.646Z,24.76
2023-05-14T13:07:39.249Z,24.37
2023-05-14T13:10:08.134Z,23.45
2023-05-14T13:12:35.748Z,23.03
2023-05-14T13:15:04.825Z,24.51
2023-05-14T13:17:32.422Z,23.84
2023-05-14T13:20:00.111Z,23.06
2023-05-14T13:22:27.660Z,22.62
2023-05-14T13:24:55.125Z,22.12
2023-05-14T13:27:22.637Z,23.50
2023-05-14T13:29:50.281Z,23.11
2023-05-14T13:32:19.112Z,22.54
2023-05-14T13:34:46.584Z,23.38
2023-05-14T13:37:14.059Z,22.30
2023-05-14T13:39:41.646Z,21.89
2023-05-14T13:42:09.272Z,23.22
2023-05-14T13:44:36.882Z,21.60
2023-05-14T13:47:04.544Z,23.02
2023-05-14T13:49:33.332Z,24.74
2023-05-14T13:52:00.853Z,24.90
2023-05-14T13:54:28.340Z,24.63
2023-05-14T13:56:56.071Z,22.91
2023-05-14T13:59:23.947Z,21.29
2023-05-14T14:01:51.729Z,23.27
2023-05-14T14:04:19.943Z,22.25
2023-05-14T14:06:48.788Z,25.19
2023-05-14T14:09:16.313Z,22.14
2023-05-14T14:11:43.863Z,23.71
2023-05-14T14:14:11.390Z,23.49
2023-05-14T14:16:38.891Z,23.38
2023-05-14T14:19:06.532Z,23.36
2023-05-14T14:21:34.175Z,23.04
2023-05-14T14:24:03.022Z,20.76
2023-05-14T14:26:30.536Z,21.10
2023-05-14T14:28:58.402Z,22.87
2023-05-14T14:31:28.363Z,23.04
2023-05-14T14:33:55.870Z,22.22
2023-05-14T14:36:23.351Z,21.09
2023-05-14T14:38:51.170Z,22.03
2023-05-14T14:41:19.951Z,22.95
2023-05-14T14:43:47.442Z,21.37
2023-05-14T14:46:14.996Z,21.43
2023-05-14T14:48:42.537Z,20.50
2023-05-14T14:51:10.420Z,21.40
2023-05-14T14:53:38.087Z,23.32
2023-05-14T14:56:06.252Z,21.65
2023-05-14T14:58:35.041Z,23.49
2023-05-14T15:01:02.611Z,23.02
2023-05-14T15:03:30.476Z,23.57
2023-05-14T15:05:58.200Z,23.52
2023-05-14T15:08:27.335Z,22.89
2023-05-14T15:10:55.248Z,23.26
2023-05-14T15:13:22.911Z,22.90
2023-05-14T15:15:52.557Z,22.30
2023-05-14T15:18:20.529Z,22.55
2023-05-14T15:20:48.181Z,21.38
2023-05-14T15:23:15.801Z,25.74
2023-05-14T15:25:43.342Z,21.87
2023-05-14T15:28:10.893Z,22.45
2023-05-14T15:30:38.414Z,24.15
2023-05-14T15:33:08.901Z,21.53
2023-05-14T15:35:36.489Z,22.19
2023-05-14T15:38:04.681Z,21.97
2023-05-14T15:40:33.126Z,22.54
2023-05-14T15:43:00.631Z,24.92
2023-05-14T15:45:28.131Z,23.72
2023-05-14T15:47:55.712Z,23.89
2023-05-14T15:50:25.821Z,22.13
2023-05-14T15:52:53.572Z,21.27
2023-05-14T15:55:21.181Z,21.51
2023-05-14T15:57:48.694Z,20.91
2023-05-14T16:00:17.493Z,20.45
2023-05-14T16:02:45.139Z,23.73
2023-05-14T16:05:14.926Z,24.08
2023-05-14T16:07:43.966Z,22.74
2023-05-14T16:10:11.918Z,23.82
2023-05-14T16:12:39.436Z,24.91
2023-05-14T16:15:08.241Z,21.43
2023-05-14T16:17:35.980Z,20.49
2023-05-14T16:20:04.700Z,20.35
2023-05-14T16:22:34.623Z,20.81
2023-05-14T16:25:04.830Z,22.86
2023-05-14T16:27:32.504Z,21.73
2023-05-14T16:30:00.235Z,21.68
2023-05-14T16:32:27.951Z,21.71
2023-05-14T16:34:56.465Z,20.66
2023-05-14T16:37:24.075Z,23.81
2023-05-14T16:39:51.722Z,25.13
2023-05-14T16:42:21.277Z,20.21
2023-05-14T16:44:48.791Z,20.59
2023-05-14T16:47:16.295Z,22.88
2023-05-14T16:49:44.084Z,20.59
2023-05-14T16:52:11.546Z,21.67
2023-05-14T16:54:39.013Z,21.15
2023-05-14T16:57:06.726Z,21.07
2023-05-14T16:59:36.116Z,20.19
2023-05-14T17:02:03.705Z,20.11
2023-05-14T17:04:33.372Z,22.53
2023-05-14T17:07:01.482Z,20.68
2023-05-14T17:09:29.068Z,20.16
2023-05-14T17:11:56.563Z,21.54
2023-05-14T17:14:24.093Z,20.63
2023-05-14T17:16:52.926Z,19.80
2023-05-14T17:19:20.409Z,20.31
2023-05-14T17:21:47.882Z,21.40
2023-05-14T17:24:15.380Z,20.33
2023-05-14T17:26:42.892Z,19.77
2023-05-14T17:29:10.368Z,19.59
2023-05-14T17:31:37.918Z,19.89
2023-05-14T17:34:06.744Z,20.10
2023-05-14T17:36:34.259Z,21.14
2023-05-14T17:39:01.722Z,21.83
2023-05-14T17:41:29.211Z,21.11
2023-05-14T17:43:56.855Z,22.19
2023-05-14T17:46:24.398Z,20.44
2023-05-14T17:48:51.984Z,19.60
2023-05-14T17:51:20.814Z,19.60
2023-05-14T17:53:48.304Z,19.87
2023-05-14T17:56:17.262Z,20.88
2023-05-14T17:58:44.765Z,19.41
2023-05-14T18:01:12.585Z,19.39
2023-05-14T18:03:40.288Z,20.20
2023-05-14T18:06:07.806Z,19.50
2023-05-14T18:08:36.688Z,18.45
2023-05-14T18:11:04.218Z,18.33
2023-05-14T18:13:31.821Z,18.67
2023-05-14T18:16:00.576Z,18.42
2023-05-14T18:18:28.315Z,18.21
2023-05-14T18:20:55.809Z,19.15
2023-05-14T18:23:23.326Z,17.73
2023-05-14T18:25:52.125Z,17.38
2023-05-14T18:28:21.349Z,17.29
2023-05-14T18:30:49.242Z,17.16
2023-05-14T18:33:16.791Z,17.06
2023-05-14T18:35:44.516Z,16.90
2023-05-14T18:38:13.716Z,16.75
2023-05-14T18:40:41.258Z,16.60
2023-05-14T18:43:11.480Z,16.54
2023-05-14T18:45:39.748Z,16.28
2023-05-14T18:48:07.533Z,16.24
2023-05-14T18:50:36.109Z,16.20
2023-05-14T18:53:04.440Z,16.20
2023-05-14T18:55:32.005Z,16.62
2023-05-14T18:57:59.496Z,16.24
2023-05-14T19:00:28.506Z,18.45
2023-05-14T19:02:56.119Z,19.56
2023-05-14T19:05:24.041Z,19.81
2023-05-14T19:07:51.728Z,20.31
2023-05-14T19:10:19.258Z,20.49
2023-05-14T19:12:47.482Z,19.28
2023-05-14T19:15:15.883Z,20.11
2023-05-14T19:17:44.866Z,19.64
2023-05-14T19:20:13.156Z,19.21
2023-05-14T19:22:41.121Z,19.29
2023-05-14T19:25:11.213Z,18.17
2023-05-14T19:27:42.709Z,19.58
2023-05-14T19:30:11.895Z,19.45
2023-05-14T19:32:39.635Z,17.72
2023-05-14T19:35:09.871Z,17.53
2023-05-14T19:37:37.621Z,15.93
2023-05-14T19:40:06.706Z,15.59
2023-05-14T19:42:34.550Z,15.50
2023-05-14T19:45:02.118Z,15.51
2023-05-14T19:47:29.682Z,15.41
2023-05-14T19:49:57.190Z,15.71
2023-05-14T19:52:26.006Z,15.16
2023-05-14T19:54:53.495Z,15.17
2023-05-14T19:57:21.761Z,15.40
2023-05-14T19:59:49.854Z,15.13
2023-05-14T20:02:21.912Z,15.00
2023-05-14T20:04:49.852Z,14.93
2023-05-14T20:07:17.890Z,15.12
2023-05-14T20:09:47.238Z,14.80
2023-05-14T20:12:14.764Z,14.72
2023-05-14T20:14:42.250Z,14.79
2023-05-14T20:17:09.925Z,14.58
2023-05-14T20:19:37.654Z,14.43
2023-05-14T20:22:05.458Z,14.53
2023-05-14T20:24:32.977Z,15.54
2023-05-14T20:27:04.093Z,15.36
2023-05-14T20:29:32.000Z,14.64
2023-05-14T20:31:59.626Z,15.51
2023-05-14T20:34:27.120Z,15.53
2023-05-14T20:36:54.799Z,14.89
2023-05-14T20:39:22.446Z,14.22
2023-05-14T20:41:49.953Z,15.59
2023-05-14T20:44:20.595Z,16.07
2023-05-14T20:46:48.496Z,16.79
2023-05-14T20:49:16.180Z,16.68
2023-05-14T20:51:43.682Z,16.23
2023-05-14T20:54:11.187Z,15.06
2023-05-14T20:56:38.797Z,16.32
2023-05-14T20:59:06.455Z,15.75
2023-05-14T21:01:35.361Z,14.75
2023-05-14T21:04:03.366Z,13.51
2023-05-14T21:06:31.079Z,12.96
2023-05-14T21:08:58.572Z,12.65
2023-05-14T21:11:26.062Z,12.64
2023-05-14T21:13:53.664Z,12.43
2023-05-14T21:16:21.337Z,12.42
2023-05-14T21:18:50.192Z,12.50
2023-05-14T21:21:17.773Z,12.64
2023-05-14T21:23:45.740Z,12.48
2023-05-14T21:26:13.252Z,12.32
2023-05-14T21:28:40.810Z,12.25
2023-05-14T21:31:08.299Z,12.18
2023-05-14T21:33:35.801Z,12.28
2023-05-14T21:36:05.002Z,12.25
2023-05-14T21:38:32.620Z,12.15
2023-05-14T21:41:00.262Z,12.05
2023-05-14T21:43:27.929Z,12.20
2023-05-14T21:45:55.449Z,12.15
2023-05-14T21:48:23.422Z,12.19
2023-05-14T21:50:51.134Z,12.12
2023-05-14T21:53:20.240Z,11.97
2023-05-14T21:55:47.907Z,12.46
2023-05-14T21:58:17.098Z,13.21
2023-05-14T22:00:44.624Z,13.56
2023-05-14T22:03:12.250Z,13.02
2023-05-14T22:05:39.812Z,13.16
2023-05-14T22:08:07.484Z,13.05
2023-05-14T22:10:36.708Z,13.48
2023-05-14T22:13:04.252Z,13.68
2023-05-14T22:15:31.724Z,13.56
2023-05-14T22:17:59.268Z,13.66
2023-05-14T22:20:26.773Z,13.20
2023-05-14T22:22:54.307Z,12.78
2023-05-14T22:25:21.816Z,11.80
2023-05-14T22:27:50.733Z,11.42
2023-05-14T22:30:18.262Z,12.36
2023-05-14T22:32:45.847Z,12.31
2023-05-14T22:35:13.352Z,11.41
2023-05-14T22:37:40.955Z,12.10
2023-05-14T22:40:09.983Z,11.23
2023-05-14T22:42:37.496Z,10.87
2023-05-14T22:45:07.787Z,10.66
2023-05-14T22:47:35.306Z,10.59
2023-05-14T22:50:02.922Z,10.85
2023-05-14T22:52:30.499Z,11.34
2023-05-14T22:54:57.975Z,11.31
2023-05-14T22:57:25.651Z,10.83
2023-05-14T22:59:53.160Z,10.29
2023-05-14T23:02:22.131Z,10.13
2023-05-14T23:04:49.700Z,10.15
2023-05-14T23:07:17.744Z,10.31
2023-05-14T23:09:45.550Z,10.04
2023-05-14T23:12:13.036Z,9.92
2023-05-14T23:14:40.564Z,10.19
2023-05-14T23:17:08.057Z,10.58
2023-05-14T23:19:36.929Z,10.11
2023-05-14T23:22:04.752Z,9.71
2023-05-14T23:24:32.285Z,9.84
2023-05-14T23:26:59.769Z,10.54
2023-05-14T23:29:27.296Z,10.24
2023-05-14T23:31:54.833Z,9.85
2023-05-14T23:34:22.593Z,9.76
2023-05-14T23:36:51.726Z,9.83
2023-05-14T23:39:19.259Z,9.88
2023-05-14T23:41:46.783Z,9.94
2023-05-14T23:44:14.262Z,9.84
2023-05-14T23:46:41.898Z,9.63
2023-05-14T23:49:09.451Z,9.53
2023-05-14T23:51:37.815Z,9.52
2023-05-14T23:54:06.725Z,9.32
2023-05-14T23:56:34.344Z,9.21
2023-05-14T23:59:01.958Z,9.25
